Terminal Aerodrome Forecast
Issued by NWS Huntsville, AL

Home | Current Version | Previous Version | Text Only | Print | Product List | Glossary On
Versions: 1 2 3 4 5 6 7 8 9 10 11 12 13 14 15 16 17 18 19 20 21 22 23 24 25 26 27 28 29 30 31
000
FTUS44 KHUN 301130
TAFHSV
TAF
KHSV 301130Z 3012/0112 24005KT P6SM SCT050 OVC200
     FM301600 24010G20KT P6SM VCTS SCT040CB BKN090
      TEMPO 3017/3021 4SM -TSRA BR BKN030CB
     FM302300 24006KT P6SM SCT050 BKN250
     FM010200 VRB03KT P6SM BKN250=

USA.gov is the U.S. government's official web portal to all federal, state and local government web resources and services.